Time;durP1;ratioP1;P1;durP2;ratioP2;P2;SDS_P1;SDS_P2;PMS_P1;PMS_P2;Temp;Humidity;BMP_temperature;BMP_pressure;BME280_temperature;BME280_humidity;BME280_pressure;Samples;Min_cycle;Max_cycle;Signal;HPM_P1;HPM_P2
2023/12/11 00:01:21;;;;;;;12.98;1.70;;;;;;;7.28;100.00;99524.69;5094033;28;20032;-69
2023/12/11 00:03:47;;;;;;;11.10;1.27;;;;;;;7.30;100.00;99507.22;5093568;28;20036;-68
2023/12/11 00:06:16;;;;;;;7.78;1.45;;;;;;;7.30;100.00;99501.97;5093730;28;20052;-69
2023/12/11 00:08:41;;;;;;;14.60;1.83;;;;;;;7.29;100.00;99505.47;5090814;28;20055;-68
2023/12/11 00:11:09;;;;;;;12.13;1.67;;;;;;;7.29;100.00;99500.22;5093130;28;20032;-69
2023/12/11 00:13:34;;;;;;;11.80;1.83;;;;;;;7.28;100.00;99493.16;5093044;28;20491;-68
2023/12/11 00:15:59;;;;;;;7.28;1.50;;;;;;;7.27;100.00;99482.59;5093257;28;20169;-68
2023/12/11 00:18:25;;;;;;;7.93;1.53;;;;;;;7.25;100.00;99476.41;5092701;28;20050;-68
2023/12/11 00:20:50;;;;;;;11.17;1.90;;;;;;;7.25;100.00;99466.78;5092595;28;20048;-68
2023/12/11 00:23:15;;;;;;;8.70;1.70;;;;;;;7.24;100.00;99475.53;5093271;28;20040;-68
2023/12/11 00:25:48;;;;;;;11.60;1.77;;;;;;;7.23;100.00;99467.59;5093042;28;20049;-68
2023/12/11 00:28:13;;;;;;;15.35;1.98;;;;;;;7.21;100.00;99464.91;5093075;28;20036;-68
2023/12/11 00:30:39;;;;;;;17.90;2.35;;;;;;;7.21;100.00;99453.50;5092441;28;20141;-68
2023/12/11 00:33:04;;;;;;;14.47;1.50;;;;;;;7.19;100.00;99448.22;5092856;28;20054;-68
2023/12/11 00:35:30;;;;;;;8.60;1.40;;;;;;;7.18;100.00;99432.41;5088406;28;20039;-68
2023/12/11 00:37:55;;;;;;;7.97;1.33;;;;;;;7.18;100.00;99429.78;5072138;28;20531;-68
2023/12/11 00:40:20;;;;;;;15.03;1.40;;;;;;;7.13;100.00;99413.88;5071496;28;20036;-69
2023/12/11 00:42:46;;;;;;;17.30;1.93;;;;;;;7.13;100.00;99407.72;5072577;28;20036;-68
2023/12/11 00:45:14;;;;;;;13.40;1.63;;;;;;;7.10;100.00;99400.66;5072205;28;20331;-68
2023/12/11 00:47:40;;;;;;;9.48;1.15;;;;;;;7.10;100.00;99387.53;5072519;28;20044;-68
2023/12/11 00:50:05;;;;;;;9.80;2.07;;;;;;;7.09;100.00;99385.75;5072343;28;20044;-67
2023/12/11 00:52:31;;;;;;;8.03;1.37;;;;;;;7.08;100.00;99388.31;5079389;28;20578;-68
2023/12/11 00:54:57;;;;;;;14.10;1.80;;;;;;;7.08;100.00;99367.31;5114073;28;20024;-69
2023/12/11 00:57:23;;;;;;;16.23;1.87;;;;;;;7.07;100.00;99374.28;5114001;28;20513;-69
2023/12/11 00:59:48;;;;;;;12.23;1.83;;;;;;;7.08;100.00;99369.94;5103146;28;20036;-68
2023/12/11 01:02:13;;;;;;;9.83;1.63;;;;;;;7.09;100.00;99364.75;5090481;28;20040;-68
2023/12/11 01:04:39;;;;;;;10.87;1.60;;;;;;;7.10;100.00;99345.53;5091825;28;20057;-69
2023/12/11 01:07:04;;;;;;;13.02;1.60;;;;;;;7.08;100.00;99335.81;5092189;28;20032;-67
2023/12/11 01:09:30;;;;;;;10.40;1.23;;;;;;;7.08;100.00;99334.09;5092083;28;20140;-67
2023/12/11 01:11:55;;;;;;;8.10;1.33;;;;;;;7.10;100.00;99328.88;5091756;28;20543;-68
2023/12/11 01:14:21;;;;;;;9.40;1.57;;;;;;;7.11;100.00;99322.78;5091516;28;20036;-67
2023/12/11 01:16:46;;;;;;;6.67;1.40;;;;;;;7.11;100.00;99315.78;5091917;28;20032;-68
2023/12/11 01:19:11;;;;;;;11.40;1.27;;;;;;;7.11;100.00;99313.16;5091241;28;20105;-68
2023/12/11 01:21:37;;;;;;;8.93;0.90;;;;;;;7.13;100.00;99315.84;5091946;28;20270;-70
2023/12/11 01:24:03;;;;;;;6.43;1.30;;;;;;;7.12;100.00;99322.81;5091867;28;20032;-67
2023/12/11 01:26:28;;;;;;;7.17;1.30;;;;;;;7.14;100.00;99304.50;5091405;28;20043;-67
2023/12/11 01:28:53;;;;;;;6.70;0.80;;;;;;;7.14;100.00;99305.41;5090911;28;20279;-68
2023/12/11 01:31:19;;;;;;;7.77;1.60;;;;;;;7.14;100.00;99289.66;5091539;28;20119;-70
2023/12/11 01:33:44;;;;;;;8.47;1.23;;;;;;;7.14;100.00;99286.13;5091553;28;20050;-68
2023/12/11 01:36:09;;;;;;;5.33;0.73;;;;;;;7.15;100.00;99296.69;5091634;28;20551;-68
2023/12/11 01:38:35;;;;;;;8.57;1.40;;;;;;;7.16;100.00;99290.56;5091587;28;20093;-68
2023/12/11 01:41:00;;;;;;;6.10;1.17;;;;;;;7.18;100.00;99299.41;5092134;28;20658;-68
2023/12/11 01:43:26;;;;;;;7.50;1.10;;;;;;;7.21;100.00;99290.72;5092348;28;20039;-69
2023/12/11 01:46:13;;;;;;;9.17;1.17;;;;;;;7.24;100.00;99264.56;5090649;28;20046;-68
2023/12/11 01:48:39;;;;;;;8.20;1.40;;;;;;;7.26;100.00;99274.25;5090677;28;20200;-69
2023/12/11 01:51:06;;;;;;;8.80;1.35;;;;;;;7.28;100.00;99280.47;5091319;28;20031;-68
2023/12/11 01:53:32;;;;;;;10.57;1.50;;;;;;;7.34;100.00;99285.91;5103105;28;20040;-69
2023/12/11 01:55:58;;;;;;;7.13;1.07;;;;;;;7.35;100.00;99279.78;5111384;28;20131;-68
2023/12/11 01:58:24;;;;;;;7.50;1.10;;;;;;;7.37;100.00;99261.47;5111054;28;20039;-68
2023/12/11 02:00:50;;;;;;;13.47;1.57;;;;;;;7.41;100.00;99268.56;5093330;27;20051;-68
2023/12/11 02:03:15;;;;;;;7.57;1.25;;;;;;;7.44;100.00;99267.78;5091718;28;20657;-68
2023/12/11 02:05:42;;;;;;;8.83;1.23;;;;;;;7.46;100.00;99264.34;5091478;28;20135;-68
2023/12/11 02:08:08;;;;;;;5.32;0.90;;;;;;;7.49;100.00;99253.06;5091124;28;20036;-68
2023/12/11 02:10:35;;;;;;;8.07;1.40;;;;;;;7.53;100.00;99249.66;5090331;28;20041;-68
2023/12/11 02:13:00;;;;;;;8.95;1.40;;;;;;;7.52;100.00;99253.13;5090696;28;20047;-68
2023/12/11 02:15:43;;;;;;;6.13;1.00;;;;;;;7.55;100.00;99242.72;5090729;28;20032;-67
2023/12/11 02:18:11;;;;;;;10.38;1.60;;;;;;;7.55;100.00;99233.09;5090605;28;20480;-67
2023/12/11 02:20:40;;;;;;;8.50;1.30;;;;;;;7.59;100.00;99234.09;5090082;28;20071;-68
2023/12/11 02:23:29;;;;;;;10.95;1.60;;;;;;;7.61;100.00;99228.00;5090525;28;20039;-67
2023/12/11 02:26:11;;;;;;;8.97;1.00;;;;;;;7.63;100.00;99222.81;5091051;28;20036;-68
2023/12/11 02:28:36;;;;;;;11.43;1.33;;;;;;;7.65;100.00;99223.72;5090186;28;20051;-67
2023/12/11 02:31:02;;;;;;;9.37;1.30;;;;;;;7.66;100.00;99210.66;5090767;28;20040;-68
2023/12/11 02:33:27;;;;;;;5.17;1.03;;;;;;;7.68;100.00;99216.84;5090532;28;20033;-68
2023/12/11 02:35:52;;;;;;;11.63;1.87;;;;;;;7.69;100.00;99201.97;5090981;28;20364;-68
2023/12/11 02:38:18;;;;;;;5.47;1.10;;;;;;;7.70;100.00;99208.97;5090168;28;20135;-67
2023/12/11 02:40:43;;;;;;;8.93;1.10;;;;;;;7.74;100.00;99216.13;5090077;28;20131;-68
2023/12/11 02:43:08;;;;;;;7.50;1.37;;;;;;;7.77;100.00;99208.31;5090653;28;20040;-69
2023/12/11 02:45:34;;;;;;;8.67;1.23;;;;;;;7.81;100.00;99207.53;5090546;28;20126;-68
2023/12/11 02:48:02;;;;;;;4.17;0.93;;;;;;;7.83;100.00;99205.88;5090090;28;20327;-68
2023/12/11 02:50:31;;;;;;;5.60;1.08;;;;;;;7.87;100.00;99217.34;5089768;28;20052;-67
2023/12/11 02:52:58;;;;;;;6.70;1.13;;;;;;;7.88;100.00;99212.13;5090337;28;20446;-66
2023/12/11 02:55:23;;;;;;;5.28;1.30;;;;;;;7.90;100.00;99210.41;5090464;28;20035;-68
2023/12/11 02:57:49;;;;;;;7.57;1.10;;;;;;;7.92;100.00;99198.22;5090151;28;20089;-66
2023/12/11 03:00:15;;;;;;;3.72;0.77;;;;;;;7.93;100.00;99201.75;5102833;28;20066;-67
2023/12/11 03:02:40;;;;;;;12.17;1.27;;;;;;;7.94;100.00;99195.66;5099548;28;20036;-68
2023/12/11 03:05:06;;;;;;;7.20;1.07;;;;;;;8.00;100.00;99198.41;5080709;28;20040;-67
2023/12/11 03:07:31;;;;;;;6.10;1.20;;;;;;;8.02;100.00;99207.25;5079266;28;20041;-68
2023/12/11 03:09:56;;;;;;;12.53;1.43;;;;;;;8.06;100.00;99209.97;5071306;28;20377;-68
2023/12/11 03:12:22;;;;;;;7.83;1.37;;;;;;;8.03;100.00;99215.19;5069893;28;20047;-68
2023/12/11 03:14:47;;;;;;;9.43;1.30;;;;;;;7.97;100.00;99212.38;5070091;28;20167;-68
2023/12/11 03:17:13;;;;;;;9.48;1.35;;;;;;;7.98;100.00;99208.00;5069837;28;20465;-68
2023/12/11 03:19:38;;;;;;;12.80;1.50;;;;;;;7.98;100.00;99223.78;5069274;28;20123;-67
2023/12/11 03:22:03;;;;;;;6.37;1.17;;;;;;;7.94;100.00;99209.69;5069974;28;20474;-67
2023/12/11 03:24:29;;;;;;;11.17;1.20;;;;;;;7.97;100.00;99217.63;5069904;28;20051;-67
2023/12/11 03:26:54;;;;;;;6.73;1.37;;;;;;;7.99;100.00;99212.44;5072183;28;20044;-68
2023/12/11 03:29:19;;;;;;;12.80;1.90;;;;;;;8.03;100.00;99224.81;5073136;28;20033;-68
2023/12/11 03:31:45;;;;;;;14.87;2.40;;;;;;;8.06;100.00;99235.38;5073567;28;20052;-68
2023/12/11 03:34:10;;;;;;;9.07;1.20;;;;;;;8.06;100.00;99231.03;5073729;28;20044;-67
2023/12/11 03:36:35;;;;;;;9.27;2.00;;;;;;;8.12;100.00;99231.19;5073521;28;20075;-68
2023/12/11 03:39:01;;;;;;;10.93;1.30;;;;;;;8.19;100.00;99233.09;5072940;28;20390;-68
2023/12/11 03:41:26;;;;;;;7.13;1.35;;;;;;;8.22;100.00;99241.09;5073561;28;20036;-67
2023/12/11 03:43:52;;;;;;;12.03;1.53;;;;;;;8.28;100.00;99239.47;5073661;28;20246;-67
2023/12/11 03:46:17;;;;;;;11.13;1.90;;;;;;;8.33;100.00;99245.78;5073557;28;20028;-68
2023/12/11 03:48:42;;;;;;;6.77;1.50;;;;;;;8.38;100.00;99242.44;5085098;28;20111;-68
2023/12/11 03:51:08;;;;;;;7.40;1.70;;;;;;;8.39;100.00;99244.19;5099054;28;20028;-68
2023/12/11 03:53:33;;;;;;;12.18;1.58;;;;;;;8.42;100.00;99235.50;5109573;28;20039;-68
2023/12/11 03:55:58;;;;;;;6.70;1.67;;;;;;;8.49;100.00;99242.66;5099311;28;20439;-71
2023/12/11 04:00:42;;;;;;;7.93;1.35;;;;;;;8.56;100.00;99257.78;5088167;28;20360;-68
2023/12/11 04:03:08;;;;;;;10.53;1.53;;;;;;;8.58;100.00;99258.72;5088124;28;20047;-68
2023/12/11 04:07:56;;;;;;;11.18;1.35;;;;;;;8.59;100.00;99265.72;5107674;27;20446;-68
2023/12/11 04:10:22;;;;;;;9.03;1.60;;;;;;;8.64;100.00;99272.88;5106177;28;20028;-67
2023/12/11 04:12:47;;;;;;;9.40;1.33;;;;;;;8.68;100.00;99260.72;5107722;28;20115;-68
2023/12/11 04:15:12;;;;;;;10.60;1.63;;;;;;;8.68;100.00;99269.47;5107810;28;20162;-66
2023/12/11 04:17:38;;;;;;;7.27;1.30;;;;;;;8.73;100.00;99274.00;5108033;28;20218;-68
2023/12/11 04:20:04;;;;;;;11.45;1.42;;;;;;;8.74;100.00;99266.09;5107411;28;20039;-67
2023/12/11 04:22:30;;;;;;;7.30;1.37;;;;;;;8.72;100.00;99259.94;5108167;28;20043;-68
2023/12/11 04:24:55;;;;;;;6.05;1.50;;;;;;;8.75;100.00;99273.16;5104669;28;20104;-68
2023/12/11 04:27:20;;;;;;;7.03;1.57;;;;;;;8.77;100.00;99292.53;5087958;28;20040;-67
2023/12/11 04:29:46;;;;;;;4.13;0.97;;;;;;;8.74;100.00;99281.00;5088442;28;20037;-69
2023/12/11 04:32:11;;;;;;;6.57;1.10;;;;;;;8.72;100.00;99275.72;5088029;28;20036;-67
2023/12/11 04:34:37;;;;;;;10.45;1.83;;;;;;;8.69;100.00;99283.53;5087582;28;20507;-68
2023/12/11 04:37:02;;;;;;;7.23;1.03;;;;;;;8.67;100.00;99290.50;5087373;28;20040;-67
2023/12/11 04:39:28;;;;;;;5.63;0.97;;;;;;;8.68;100.00;99290.53;5086864;28;20037;-67
2023/12/11 04:41:53;;;;;;;5.20;0.90;;;;;;;8.74;100.00;99292.44;5087434;28;20684;-68
2023/12/11 04:44:18;;;;;;;11.13;1.10;;;;;;;8.76;100.00;99295.13;5086826;28;20047;-69
2023/12/11 04:46:44;;;;;;;12.15;1.52;;;;;;;8.78;100.00;99293.41;5086621;28;20124;-68
2023/12/11 04:49:09;;;;;;;12.10;2.00;;;;;;;8.78;100.00;99298.69;5086512;28;20040;-68
2023/12/11 04:51:34;;;;;;;9.33;1.77;;;;;;;8.79;100.00;99303.06;5087309;28;20115;-68
2023/12/11 04:54:00;;;;;;;9.57;1.73;;;;;;;8.77;100.00;99299.53;5087153;28;20123;-67
2023/12/11 04:56:25;;;;;;;13.83;1.60;;;;;;;8.76;100.00;99309.16;5093331;28;20030;-67
2023/12/11 04:58:50;;;;;;;8.50;1.85;;;;;;;8.74;100.00;99308.22;5105097;28;20114;-67
2023/12/11 05:01:16;;;;;;;10.80;2.03;;;;;;;8.71;100.00;99316.06;5086804;28;20040;-67
2023/12/11 05:03:41;;;;;;;6.00;1.57;;;;;;;8.68;100.00;99321.25;5086587;28;20036;-69
2023/12/11 05:06:07;;;;;;;8.90;2.23;;;;;;;8.65;100.00;99318.53;5091535;28;20139;-67
2023/12/11 05:08:32;;;;;;;10.10;1.63;;;;;;;8.63;100.00;99326.38;5103893;28;20458;-69
2023/12/11 05:10:58;;;;;;;8.13;1.87;;;;;;;8.66;100.00;99326.47;5086436;28;20135;-68
2023/12/11 05:13:23;;;;;;;10.87;1.53;;;;;;;8.69;100.00;99323.00;5086400;28;20028;-68
2023/12/11 05:15:49;;;;;;;6.22;1.33;;;;;;;8.75;100.00;99322.28;5086802;28;20040;-69
2023/12/11 05:18:14;;;;;;;13.27;1.80;;;;;;;8.76;100.00;99338.13;5078602;28;20123;-70
2023/12/11 05:20:39;;;;;;;11.60;1.60;;;;;;;8.75;100.00;99328.44;5072596;28;20040;-68
2023/12/11 05:23:05;;;;;;;9.80;1.10;;;;;;;8.76;100.00;99327.59;5088724;28;20115;-67
2023/12/11 05:25:30;;;;;;;9.53;1.70;;;;;;;8.77;100.00;99339.91;5092989;28;20039;-68
2023/12/11 05:27:55;;;;;;;7.82;1.67;;;;;;;8.73;100.00;99337.16;5093193;28;20035;-67
2023/12/11 05:30:21;;;;;;;10.10;1.90;;;;;;;8.68;100.00;99334.41;5090717;28;20127;-67
2023/12/11 05:32:46;;;;;;;10.10;2.07;;;;;;;8.62;100.00;99335.13;5092033;28;20044;-68
2023/12/11 05:35:12;;;;;;;10.80;2.40;;;;;;;8.57;100.00;99331.50;5093870;28;20036;-68
2023/12/11 05:37:37;;;;;;;9.20;1.60;;;;;;;8.51;100.00;99339.22;5093285;28;20051;-69
2023/12/11 05:40:03;;;;;;;8.30;2.00;;;;;;;8.45;100.00;99335.53;5077672;28;20036;-68
2023/12/11 05:42:29;;;;;;;7.27;2.20;;;;;;;8.40;100.00;99335.41;5073090;28;20333;-69
2023/12/11 05:44:54;;;;;;;8.27;2.65;;;;;;;8.36;100.00;99345.81;5072950;28;20119;-67
2023/12/11 05:47:19;;;;;;;9.03;2.13;;;;;;;8.34;100.00;99337.00;5070622;28;20194;-67
2023/12/11 05:49:45;;;;;;;8.97;2.53;;;;;;;8.36;100.00;99343.19;5071602;28;20060;-69
2023/12/11 05:52:10;;;;;;;6.85;1.85;;;;;;;8.36;100.00;99343.19;5071380;28;20029;-69
2023/12/11 05:54:36;;;;;;;13.00;2.17;;;;;;;8.37;100.00;99344.97;5072318;28;20568;-68
2023/12/11 05:57:01;;;;;;;7.53;1.57;;;;;;;8.36;100.00;99344.06;5083908;28;20028;-68
2023/12/11 05:59:27;;;;;;;8.97;2.17;;;;;;;8.37;100.00;99348.50;5085452;28;20066;-68
2023/12/11 06:01:53;;;;;;;6.45;1.20;;;;;;;8.37;100.00;99344.97;5072183;28;20634;-69
2023/12/11 06:04:18;;;;;;;13.17;1.97;;;;;;;8.36;100.00;99354.59;5072065;28;20049;-67
2023/12/11 06:06:43;;;;;;;7.50;1.80;;;;;;;8.35;100.00;99346.66;5071830;28;20115;-70
2023/12/11 06:09:09;;;;;;;9.73;1.80;;;;;;;8.32;100.00;99347.47;5071965;28;20411;-69
2023/12/11 06:11:34;;;;;;;13.47;4.03;;;;;;;8.34;100.00;99347.53;5071888;28;20429;-68
2023/12/11 06:14:00;;;;;;;12.43;3.53;;;;;;;8.35;100.00;99344.03;5084948;28;20115;-71
2023/12/11 06:16:25;;;;;;;19.73;3.53;;;;;;;8.34;100.00;99339.63;5091792;28;20372;-69
2023/12/11 06:18:50;;;;;;;11.23;2.57;;;;;;;8.33;100.00;99345.72;5091359;28;20693;-70
2023/12/11 06:21:20;;;;;;;11.23;2.58;;;;;;;8.31;100.00;99342.16;5091974;28;20054;-70
2023/12/11 06:23:46;;;;;;;8.05;1.25;;;;;;;8.35;100.00;99352.81;5092024;28;20039;-67
2023/12/11 06:26:24;;;;;;;10.13;1.47;;;;;;;8.38;100.00;99345.03;5091623;28;20028;-71
2023/12/11 06:28:49;;;;;;;7.72;2.00;;;;;;;8.39;100.00;99345.88;5090878;28;20120;-69
2023/12/11 06:31:15;;;;;;;6.90;1.30;;;;;;;8.37;100.00;99343.22;5090907;28;20044;-70
2023/12/11 06:33:40;;;;;;;14.33;1.70;;;;;;;8.39;100.00;99345.88;5091797;28;20377;-69
2023/12/11 06:36:06;;;;;;;7.77;1.63;;;;;;;8.40;100.00;99348.56;5091465;28;20279;-70
2023/12/11 06:38:32;;;;;;;15.00;1.85;;;;;;;8.43;100.00;99351.28;5090920;28;20445;-71
2023/12/11 06:40:57;;;;;;;9.87;1.33;;;;;;;8.44;100.00;99352.16;5091348;28;20134;-71
2023/12/11 06:43:22;;;;;;;10.40;1.50;;;;;;;8.46;100.00;99354.00;5091487;28;20031;-68
2023/12/11 06:45:48;;;;;;;6.07;1.10;;;;;;;8.46;100.00;99358.38;5091125;28;20119;-69
2023/12/11 06:48:13;;;;;;;7.93;1.47;;;;;;;8.48;100.00;99348.78;5091021;28;20040;-68
2023/12/11 06:50:41;;;;;;;9.27;1.60;;;;;;;8.45;100.00;99361.84;5090737;28;20368;-69
2023/12/11 06:53:06;;;;;;;7.20;1.40;;;;;;;8.43;100.00;99361.81;5091416;28;20044;-70
2023/12/11 06:55:31;;;;;;;9.67;1.50;;;;;;;8.44;100.00;99366.19;5091044;28;20040;-69
2023/12/11 06:57:57;;;;;;;9.23;1.43;;;;;;;8.45;100.00;99364.47;5071719;28;20179;-69
2023/12/11 07:00:23;;;;;;;6.30;1.70;;;;;;;8.45;100.00;99361.84;5084500;28;20040;-69
2023/12/11 07:02:48;;;;;;;10.55;2.25;;;;;;;8.49;100.00;99363.69;5091163;28;20032;-68
2023/12/11 07:05:13;;;;;;;5.23;1.60;;;;;;;8.49;100.00;99361.06;5091227;28;20435;-69
2023/12/11 07:07:39;;;;;;;6.30;1.00;;;;;;;8.45;100.00;99364.47;5090837;28;20028;-70
2023/12/11 07:10:05;;;;;;;5.00;1.20;;;;;;;8.45;100.00;99368.00;5089774;28;20036;-69
2023/12/11 07:12:30;;;;;;;8.82;1.80;;;;;;;8.46;100.00;99367.16;5070593;28;20122;-69
2023/12/11 07:14:56;;;;;;;6.40;1.60;;;;;;;8.43;100.00;99377.59;5070588;28;20075;-68
2023/12/11 07:17:21;;;;;;;6.50;1.40;;;;;;;8.45;100.00;99382.88;5070740;28;20082;-66
2023/12/11 07:19:47;;;;;;;10.50;2.13;;;;;;;8.81;100.00;99390.88;5069361;28;20185;-63
2023/12/11 07:22:12;;;;;;;7.90;1.40;;;;;;;9.23;100.00;99388.44;5070115;28;20044;-62
2023/12/11 07:24:37;;;;;;;4.72;1.08;;;;;;;9.36;100.00;99388.78;5069881;28;20119;-63
2023/12/11 07:27:03;;;;;;;7.33;1.10;;;;;;;9.49;100.00;99395.22;5070347;28;20048;-63
2023/12/11 07:29:28;;;;;;;7.73;1.50;;;;;;;9.65;100.00;99393.84;5069832;28;20067;-62
2023/12/11 07:31:54;;;;;;;6.43;1.10;;;;;;;9.79;100.00;99395.03;5070366;28;20511;-62
2023/12/11 07:34:21;;;;;;;4.40;1.10;;;;;;;10.13;100.00;99389.63;5070116;28;20032;-61
2023/12/11 07:36:51;;;;;;;10.88;1.77;;;;;;;10.27;100.00;99387.31;5068674;28;20036;-68
2023/12/11 07:39:16;;;;;;;9.52;1.30;;;;;;;10.07;100.00;99389.50;5069931;28;20489;-69
2023/12/11 07:41:41;;;;;;;6.87;1.20;;;;;;;9.89;100.00;99397.03;5070270;28;20028;-69
2023/12/11 07:44:07;;;;;;;6.45;0.98;;;;;;;9.72;100.00;99399.28;5070746;28;20100;-69
2023/12/11 07:46:33;;;;;;;7.33;1.27;;;;;;;9.59;100.00;99402.50;5071313;28;20036;-68
2023/12/11 07:48:58;;;;;;;8.67;1.00;;;;;;;9.49;100.00;99400.50;5070713;28;20544;-69
2023/12/11 07:51:24;;;;;;;5.20;0.80;;;;;;;9.41;100.00;99394.16;5071785;28;20548;-69
2023/12/11 07:53:50;;;;;;;7.43;1.30;;;;;;;9.35;100.00;99394.00;5071540;28;20297;-69
2023/12/11 07:56:23;;;;;;;7.45;1.17;;;;;;;9.28;100.00;99394.69;5078857;28;20028;-68
2023/12/11 07:58:49;;;;;;;7.60;1.20;;;;;;;9.24;100.00;99396.38;5091023;28;20075;-69
2023/12/11 08:01:15;;;;;;;9.88;1.83;;;;;;;9.20;100.00;99398.91;5067710;28;20053;-68
2023/12/11 08:03:40;;;;;;;8.40;1.07;;;;;;;9.16;100.00;99402.31;5069548;28;20048;-68
2023/12/11 08:06:07;;;;;;;4.47;0.73;;;;;;;9.15;100.00;99397.91;5069915;28;20547;-69
2023/12/11 08:08:32;;;;;;;11.05;1.40;;;;;;;9.09;100.00;99402.16;5069644;28;20044;-69
2023/12/11 08:10:57;;;;;;;9.33;1.10;;;;;;;9.06;100.00;99391.56;5069948;28;20154;-69
2023/12/11 08:13:23;;;;;;;5.97;0.97;;;;;;;9.03;100.00;99386.19;5070298;28;20111;-69
2023/12/11 08:15:48;;;;;;;13.37;1.30;;;;;;;9.06;99.86;99385.41;5070519;28;20067;-70
2023/12/11 08:18:14;;;;;;;8.57;1.40;;;;;;;9.07;99.27;99390.72;5070329;28;20155;-68
2023/12/11 08:20:39;;;;;;;10.82;1.45;;;;;;;9.05;99.07;99384.50;5070251;28;20032;-70
2023/12/11 08:23:05;;;;;;;8.53;1.13;;;;;;;9.07;99.10;99392.47;5073272;28;20097;-69
2023/12/11 08:25:30;;;;;;;12.47;1.70;;;;;;;9.08;98.94;99384.56;5070628;28;20109;-69
2023/12/11 08:27:56;;;;;;;8.00;0.80;;;;;;;9.12;98.57;99385.56;5069852;28;20037;-69
2023/12/11 08:30:21;;;;;;;7.80;1.13;;;;;;;9.16;98.40;99389.16;5069464;28;20051;-68
2023/12/11 08:32:47;;;;;;;7.27;1.27;;;;;;;9.19;97.53;99384.84;5070036;28;20045;-69
2023/12/11 08:35:12;;;;;;;10.10;1.23;;;;;;;9.20;97.07;99372.56;5069783;28;20041;-69
2023/12/11 08:37:37;;;;;;;8.60;1.40;;;;;;;9.25;96.44;99376.19;5069924;28;20335;-68
2023/12/11 08:40:04;;;;;;;8.07;1.30;;;;;;;9.25;96.36;99381.47;5068061;28;20033;-69
2023/12/11 08:44:43;;;;;;;9.87;1.20;;;;;;;9.26;95.88;99380.63;5108054;27;20401;-67
2023/12/11 08:47:09;;;;;;;4.82;0.90;;;;;;;9.27;95.83;99379.78;5108156;28;20411;-67
2023/12/11 08:49:34;;;;;;;9.50;1.17;;;;;;;9.31;95.75;99369.34;5107537;28;20085;-67
2023/12/11 08:52:00;;;;;;;6.00;0.97;;;;;;;9.37;95.25;99371.25;5108177;28;20391;-68
2023/12/11 08:59:01;;;;;;;8.35;1.73;;;;;;;9.56;94.81;99365.53;5079138;28;20731;-68
2023/12/11 09:01:27;;;;;;;13.57;1.10;;;;;;;9.59;94.63;99368.22;5076351;28;20045;-67
2023/12/11 09:03:52;;;;;;;10.40;1.20;;;;;;;9.62;94.40;99365.66;5075633;28;20068;-67
2023/12/11 09:06:17;;;;;;;5.63;1.20;;;;;;;9.63;94.52;99362.16;5073511;28;20072;-68
2023/12/11 09:08:43;;;;;;;9.20;1.27;;;;;;;9.63;94.64;99364.81;5072345;28;20084;-68
2023/12/11 09:11:09;;;;;;;12.40;1.80;;;;;;;9.62;94.35;99363.00;5067827;28;20045;-68
2023/12/11 09:13:35;;;;;;;6.50;1.20;;;;;;;9.67;94.58;99365.78;5067214;28;20036;-68
2023/12/11 09:16:00;;;;;;;7.70;1.48;;;;;;;9.66;94.62;99353.47;5067486;28;20090;-68
2023/12/11 09:18:26;;;;;;;8.87;1.47;;;;;;;9.70;94.43;99352.66;5061500;28;20037;-69
2023/12/11 09:23:05;;;;;;;10.85;1.08;;;;;;;9.65;94.72;99363.09;5087493;27;20368;-68
2023/12/11 09:25:31;;;;;;;7.77;1.03;;;;;;;9.69;94.91;99364.06;5087684;28;20063;-69
2023/12/11 09:27:56;;;;;;;12.38;1.45;;;;;;;9.72;94.79;99361.50;5087638;28;20396;-69
2023/12/11 09:30:21;;;;;;;11.50;1.23;;;;;;;9.72;95.01;99354.47;5086940;28;20131;-69
2023/12/11 09:32:47;;;;;;;9.53;1.63;;;;;;;9.72;95.13;99353.59;5087906;28;20542;-69
2023/12/11 09:35:13;;;;;;;11.03;1.30;;;;;;;9.70;95.27;99348.28;5088139;28;20056;-69
2023/12/11 09:37:39;;;;;;;10.35;1.67;;;;;;;9.67;95.93;99345.56;5088079;28;20101;-69
2023/12/11 09:40:06;;;;;;;6.53;1.48;;;;;;;9.61;96.24;99342.81;5086950;28;20484;-69
2023/12/11 09:42:34;;;;;;;18.27;1.73;;;;;;;9.57;96.88;99350.63;5087551;28;20032;-68
2023/12/11 09:44:59;;;;;;;9.13;1.35;;;;;;;9.52;97.13;99346.09;5087508;28;20028;-68
2023/12/11 09:47:36;;;;;;;12.87;1.07;;;;;;;9.50;97.85;99357.47;5087391;28;20036;-69
2023/12/11 09:50:01;;;;;;;10.35;1.42;;;;;;;9.45;98.30;99354.75;5087325;28;20035;-68
2023/12/11 09:52:27;;;;;;;12.40;1.87;;;;;;;9.45;98.72;99367.03;5087194;28;20040;-68
2023/12/11 09:54:53;;;;;;;8.30;1.50;;;;;;;9.42;99.03;99361.69;5087085;28;20416;-68
2023/12/11 09:57:19;;;;;;;9.87;1.30;;;;;;;9.40;99.59;99372.19;5086933;28;20032;-68
2023/12/11 09:59:50;;;;;;;7.07;1.45;;;;;;;9.38;99.90;99367.72;5077710;28;20117;-68
2023/12/11 10:02:16;;;;;;;11.80;1.45;;;;;;;9.37;100.00;99368.59;5067104;28;20127;-68
2023/12/11 10:05:04;;;;;;;6.47;1.27;;;;;;;9.36;100.00;99366.81;5067007;28;20033;-68
2023/12/11 10:07:32;;;;;;;11.88;1.35;;;;;;;9.35;100.00;99373.81;5066722;28;20032;-68
2023/12/11 10:09:59;;;;;;;8.77;1.20;;;;;;;9.35;100.00;99370.31;5066055;28;20044;-68
2023/12/11 10:12:24;;;;;;;8.82;1.30;;;;;;;9.33;100.00;99364.09;5066840;28;20532;-68
2023/12/11 10:15:01;;;;;;;12.83;1.40;;;;;;;9.31;100.00;99365.81;5066735;28;20067;-68
2023/12/11 10:17:27;;;;;;;9.53;1.27;;;;;;;9.28;100.00;99352.56;5066463;28;20861;-69
2023/12/11 10:19:52;;;;;;;7.32;0.90;;;;;;;9.26;100.00;99354.28;5066076;28;20108;-69
2023/12/11 10:22:27;;;;;;;4.93;1.05;;;;;;;9.23;100.00;99351.56;5066279;28;20059;-68
2023/12/11 10:24:52;;;;;;;4.70;1.10;;;;;;;9.18;100.00;99343.53;5066720;28;20040;-69
2023/12/11 10:27:22;;;;;;;8.33;1.20;;;;;;;9.18;100.00;99340.91;5066492;28;20045;-68
2023/12/11 10:29:47;;;;;;;5.18;1.08;;;;;;;9.18;100.00;99342.66;5065742;28;20037;-68
2023/12/11 10:32:13;;;;;;;12.00;1.50;;;;;;;9.18;100.00;99334.75;5065742;28;20518;-68
2023/12/11 10:34:50;;;;;;;7.60;1.37;;;;;;;9.21;100.00;99335.72;5052456;28;20037;-68
2023/12/11 10:37:17;;;;;;;10.02;1.83;;;;;;;9.18;100.00;99334.75;5053167;28;20420;-68
2023/12/11 10:39:52;;;;;;;9.80;1.75;;;;;;;9.21;100.00;99335.72;5052693;28;20087;-69
2023/12/11 10:42:18;;;;;;;9.80;1.70;;;;;;;9.21;100.00;99332.22;5052744;28;20052;-69
2023/12/11 10:47:07;;;;;;;7.27;1.50;;;;;;;9.25;100.00;99323.50;5067531;28;20413;-68
2023/12/11 10:49:33;;;;;;;14.18;2.05;;;;;;;9.26;100.00;99320.94;5066936;28;20037;-68
2023/12/11 10:52:01;;;;;;;11.07;2.20;;;;;;;9.29;100.00;99317.47;5067774;28;20044;-68
2023/12/11 10:54:26;;;;;;;13.98;1.85;;;;;;;9.33;100.00;99322.81;5054150;28;20028;-68
2023/12/11 10:56:53;;;;;;;7.73;1.37;;;;;;;9.39;100.00;99319.44;5049129;28;20442;-69
2023/12/11 10:59:19;;;;;;;8.43;1.20;;;;;;;9.49;100.00;99313.53;5057727;28;20199;-68
2023/12/11 11:01:47;;;;;;;11.33;1.40;;;;;;;9.61;100.00;99311.19;5087649;28;20032;-68
2023/12/11 11:04:15;;;;;;;9.65;1.55;;;;;;;9.80;100.00;99299.28;5087305;28;20044;-68
2023/12/11 11:06:53;;;;;;;8.57;1.30;;;;;;;10.09;100.00;99294.59;5087452;28;20126;-68
2023/12/11 11:09:29;;;;;;;9.63;1.37;;;;;;;10.28;100.00;99288.84;5087062;28;20044;-68
2023/12/11 11:12:03;;;;;;;9.27;1.73;;;;;;;10.41;100.00;99296.09;5087344;28;20088;-68
2023/12/11 11:14:44;;;;;;;8.13;1.50;;;;;;;10.44;100.00;99293.53;5085857;28;20032;-69
2023/12/11 11:17:11;;;;;;;10.25;1.60;;;;;;;10.54;100.00;99291.97;5087060;28;20024;-69
2023/12/11 11:19:36;;;;;;;8.55;1.15;;;;;;;10.55;100.00;99294.63;5086840;28;20044;-69
2023/12/11 11:22:06;;;;;;;8.20;1.33;;;;;;;10.63;100.00;99298.28;5087119;28;20031;-69
2023/12/11 11:24:37;;;;;;;8.52;1.02;;;;;;;10.65;100.00;99296.56;5085919;28;20048;-71
2023/12/11 11:27:04;;;;;;;4.50;0.82;;;;;;;10.54;100.00;99295.50;5088075;28;20488;-68
2023/12/11 11:29:44;;;;;;;6.90;1.00;;;;;;;10.44;100.00;99285.63;5088043;28;20044;-69
2023/12/11 11:32:11;;;;;;;15.07;1.13;;;;;;;10.40;100.00;99289.06;5087304;28;20400;-69
2023/12/11 11:34:39;;;;;;;10.52;1.33;;;;;;;10.37;100.00;99291.63;5086876;28;20504;-69
2023/12/11 11:37:05;;;;;;;10.50;1.27;;;;;;;10.37;100.00;99289.00;5087011;28;20024;-69
2023/12/11 11:40:04;;;;;;;10.57;1.60;;;;;;;10.43;100.00;99286.47;5086414;28;20040;-69
2023/12/11 11:42:31;;;;;;;11.33;1.60;;;;;;;10.44;100.00;99287.38;5086779;28;20496;-68
2023/12/11 11:44:59;;;;;;;13.52;2.30;;;;;;;10.49;100.00;99288.34;5086938;28;20044;-69